Time;durP1;ratioP1;P1;durP2;ratioP2;P2;SDS_P1;SDS_P2;PMS_P1;PMS_P2;Temp;Humidity;BMP_temperature;BMP_pressure;BME280_temperature;BME280_humidity;BME280_pressure;Samples;Min_cycle;Max_cycle;Signal;HPM_P1;HPM_P2
2022/08/10 00:00:21;;;;;;;3.70;2.47;;;;;21.20;102134.00;;;;5031847;28;20294;-70
2022/08/10 00:03:08;;;;;;;3.27;2.50;;;;;21.20;102141.00;;;;5023956;28;20232;-69
2022/08/10 00:05:55;;;;;;;3.37;2.60;;;;;21.00;102144.00;;;;5028122;28;20705;-68
2022/08/10 00:08:42;;;;;;;5.57;3.00;;;;;21.10;102135.00;;;;5029772;28;20258;-69
2022/08/10 00:11:28;;;;;;;3.10;2.33;;;;;21.00;102144.00;;;;5022937;28;20237;-72
2022/08/10 00:14:15;;;;;;;3.43;2.87;;;;;20.80;102140.00;;;;5026351;28;20222;-71
2022/08/10 00:17:03;;;;;;;6.83;2.67;;;;;20.90;102139.00;;;;5028853;28;20231;-69
2022/08/10 00:19:49;;;;;;;4.30;2.83;;;;;20.80;102142.00;;;;5028416;28;20298;-70
2022/08/10 00:22:54;;;;;;;2.97;2.60;;;;;20.80;102138.00;;;;5028251;28;20211;-70
2022/08/10 00:25:43;;;;;;;4.07;2.87;;;;;20.70;102134.00;;;;5031314;28;20222;-73
2022/08/10 00:28:30;;;;;;;3.60;2.70;;;;;20.80;102134.00;;;;5029314;28;20209;-70
2022/08/10 00:31:16;;;;;;;3.27;2.97;;;;;20.70;102121.00;;;;5024127;28;20221;-69
2022/08/10 00:34:04;;;;;;;7.37;3.20;;;;;20.80;102125.00;;;;5020491;28;20236;-70
2022/08/10 00:36:50;;;;;;;5.13;2.80;;;;;20.60;102136.00;;;;5023090;28;20606;-69
2022/08/10 00:39:36;;;;;;;5.53;2.70;;;;;20.60;102141.00;;;;5024938;28;20212;-69
2022/08/10 00:42:25;;;;;;;3.10;2.43;;;;;20.60;102128.00;;;;5017579;28;20587;-70
2022/08/10 00:45:11;;;;;;;4.23;2.93;;;;;20.50;102134.00;;;;5022988;28;20710;-69
2022/08/10 00:47:57;;;;;;;3.57;3.03;;;;;20.40;102132.00;;;;5019480;28;20215;-69
2022/08/10 00:50:46;;;;;;;5.00;2.90;;;;;20.40;102132.00;;;;5027300;28;20282;-69
2022/08/10 00:53:32;;;;;;;4.77;2.70;;;;;20.40;102128.00;;;;5021106;28;20455;-72
2022/08/10 00:56:19;;;;;;;3.97;2.63;;;;;20.40;102130.00;;;;5021937;28;20360;-68
2022/08/10 00:59:25;;;;;;;3.60;2.70;;;;;20.40;102134.00;;;;5018485;28;20215;-69
2022/08/10 01:02:11;;;;;;;2.90;2.60;;;;;20.20;102120.00;;;;5017699;28;20221;-69
2022/08/10 01:04:59;;;;;;;4.20;2.70;;;;;20.10;102120.00;;;;5027820;28;20656;-69
2022/08/10 01:08:19;;;;;;;4.77;2.73;;;;;20.10;102121.00;;;;5019827;28;20218;-68
2022/08/10 01:11:11;;;;;;;6.57;2.93;;;;;20.10;102130.00;;;;5017219;28;20710;-71
2022/08/10 01:14:27;;;;;;;3.80;2.60;;;;;19.90;102117.00;;;;5026201;28;20364;-69
2022/08/10 01:17:21;;;;;;;4.60;2.87;;;;;20.00;102110.00;;;;5024284;28;20650;-69
2022/08/10 01:20:35;;;;;;;3.60;3.27;;;;;19.90;102113.00;;;;5016491;28;20260;-69
2022/08/10 01:23:49;;;;;;;3.30;2.60;;;;;19.90;102126.00;;;;5023319;28;20217;-69
2022/08/10 01:26:47;;;;;;;4.40;2.90;;;;;20.10;102113.00;;;;5013228;28;20225;-73
2022/08/10 01:29:53;;;;;;;5.07;2.50;;;;;19.90;102128.00;;;;5019168;28;20905;-70
2022/08/10 01:32:48;;;;;;;3.60;2.93;;;;;19.90;102114.00;;;;5025310;28;20281;-69
2022/08/10 01:35:37;;;;;;;3.43;2.90;;;;;19.80;102126.00;;;;5025368;28;20207;-71
2022/08/10 01:38:27;;;;;;;3.40;3.03;;;;;19.90;102114.00;;;;5019227;28;20205;-69
2022/08/10 01:41:21;;;;;;;6.60;3.10;;;;;19.80;102110.00;;;;5026000;28;20218;-69
2022/08/10 01:44:11;;;;;;;4.23;3.17;;;;;19.70;102107.00;;;;5027595;28;20607;-71
2022/08/10 01:50:13;;;;;;;3.97;3.10;;;;;19.50;102103.00;;;;5025563;28;20271;-73
2022/08/10 01:53:05;;;;;;;3.97;3.10;;;;;19.50;102103.00;;;;5013559;28;20570;-72
2022/08/10 01:55:54;;;;;;;6.17;3.10;;;;;19.50;102100.00;;;;5019471;28;20726;-69
2022/08/10 01:58:42;;;;;;;4.20;3.33;;;;;19.50;102093.00;;;;5020334;28;20665;-72
2022/08/10 02:01:33;;;;;;;3.90;3.37;;;;;19.50;102085.00;;;;5026711;28;20201;-76
2022/08/10 02:04:23;;;;;;;4.40;3.57;;;;;19.50;102092.00;;;;5026217;28;20725;-70
2022/08/10 02:07:13;;;;;;;5.90;3.70;;;;;19.50;102095.00;;;;5023882;28;20225;-70
2022/08/10 02:10:04;;;;;;;3.97;3.30;;;;;19.50;102097.00;;;;5011362;28;20229;-71
2022/08/10 02:12:55;;;;;;;4.77;3.33;;;;;19.40;102091.00;;;;5017259;28;20565;-70
2022/08/10 02:15:44;;;;;;;4.37;3.30;;;;;19.40;102086.00;;;;5022640;28;20771;-71
2022/08/10 02:18:48;;;;;;;3.83;3.07;;;;;19.40;102088.00;;;;5024171;28;20221;-69
2022/08/10 02:21:37;;;;;;;4.30;3.37;;;;;19.40;102092.00;;;;5021582;28;20216;-71
2022/08/10 02:24:45;;;;;;;5.90;3.20;;;;;19.30;102086.00;;;;5012259;28;20225;-71
2022/08/10 02:27:33;;;;;;;5.53;3.40;;;;;19.10;102089.00;;;;5023236;28;20280;-72
2022/08/10 02:30:20;;;;;;;4.90;3.43;;;;;19.00;102084.00;;;;5025406;28;20213;-69
2022/08/10 02:33:08;;;;;;;4.43;3.40;;;;;19.10;102085.00;;;;5016858;28;20213;-69
2022/08/10 02:36:00;;;;;;;4.27;3.60;;;;;19.00;102087.00;;;;5020565;28;20300;-69
2022/08/10 02:38:51;;;;;;;4.17;3.47;;;;;19.00;102099.00;;;;5025955;28;20681;-69
2022/08/10 02:41:52;;;;;;;6.27;3.67;;;;;19.00;102087.00;;;;5024280;28;20584;-69
2022/08/10 02:45:01;;;;;;;5.63;3.33;;;;;19.20;102095.00;;;;5018577;28;20726;-70
2022/08/10 02:48:13;;;;;;;4.63;3.50;;;;;19.00;102098.00;;;;5023643;28;20241;-73
2022/08/10 02:51:05;;;;;;;7.87;3.83;;;;;18.90;102113.00;;;;5020193;28;20211;-70
2022/08/10 02:53:59;;;;;;;4.07;3.30;;;;;19.00;102106.00;;;;5013008;28;20226;-68
2022/08/10 02:56:54;;;;;;;4.80;3.67;;;;;18.80;102097.00;;;;5021381;28;20320;-70
2022/08/10 02:59:45;;;;;;;4.60;3.40;;;;;18.90;102110.00;;;;5019349;28;20693;-69
2022/08/10 03:02:35;;;;;;;5.00;3.73;;;;;19.00;102100.00;;;;5023047;28;20210;-71
2022/08/10 03:05:22;;;;;;;4.53;3.20;;;;;18.80;102094.00;;;;5022460;28;20225;-69
2022/08/10 03:08:11;;;;;;;5.13;3.93;;;;;18.70;102103.00;;;;5014046;28;20233;-69
2022/08/10 03:11:02;;;;;;;6.13;4.27;;;;;18.60;102110.00;;;;5020829;28;20766;-69
2022/08/10 03:13:51;;;;;;;4.27;3.60;;;;;18.50;102107.00;;;;5024107;28;20209;-68
2022/08/10 03:16:46;;;;;;;5.77;3.73;;;;;18.70;102109.00;;;;5014330;28;20288;-71
2022/08/10 03:19:34;;;;;;;5.27;3.53;;;;;18.70;102109.00;;;;5015628;28;20737;-70
2022/08/10 03:22:41;;;;;;;4.80;4.00;;;;;18.50;102102.00;;;;5018656;28;20253;-69
2022/08/10 03:25:29;;;;;;;6.07;3.57;;;;;18.30;102105.00;;;;5022285;28;20345;-69
2022/08/10 03:28:17;;;;;;;4.20;3.57;;;;;18.30;102102.00;;;;5026044;28;20718;-69
2022/08/10 03:31:07;;;;;;;6.13;4.00;;;;;18.20;102097.00;;;;5021717;28;20213;-71
2022/08/10 03:33:54;;;;;;;4.87;3.70;;;;;18.20;102100.00;;;;5027440;28;20205;-69
2022/08/10 03:36:40;;;;;;;4.73;3.50;;;;;18.10;102089.00;;;;5029799;28;20229;-71
2022/08/10 03:39:30;;;;;;;6.50;3.43;;;;;18.00;102087.00;;;;5020575;28;20214;-70
2022/08/10 03:42:17;;;;;;;5.70;3.60;;;;;18.00;102094.00;;;;5022611;28;20213;-69
2022/08/10 03:45:07;;;;;;;5.10;4.03;;;;;17.90;102089.00;;;;5031173;28;20233;-69
2022/08/10 03:47:55;;;;;;;4.77;3.87;;;;;17.90;102082.00;;;;5020437;28;20345;-70
2022/08/10 03:50:41;;;;;;;5.57;3.67;;;;;17.90;102095.00;;;;5024132;28;20209;-69
2022/08/10 03:53:37;;;;;;;5.70;3.57;;;;;17.80;102088.00;;;;5026979;28;20900;-69
2022/08/10 03:56:44;;;;;;;4.90;4.00;;;;;17.80;102084.00;;;;5024159;28;20237;-73
2022/08/10 03:59:31;;;;;;;5.10;3.77;;;;;17.80;102082.00;;;;5028059;28;20229;-69
2022/08/10 04:02:19;;;;;;;4.33;3.80;;;;;17.70;102078.00;;;;5023284;28;20217;-69
2022/08/10 04:05:26;;;;;;;5.00;3.50;;;;;17.70;102085.00;;;;5027331;28;20229;-71
2022/08/10 04:08:24;;;;;;;5.33;4.23;;;;;17.70;102076.00;;;;5022490;28;20217;-74
2022/08/10 04:11:11;;;;;;;5.73;4.23;;;;;17.60;102076.00;;;;5028819;28;20396;-72
2022/08/10 04:13:57;;;;;;;6.73;3.90;;;;;17.80;102067.00;;;;5025355;28;20206;-69
2022/08/10 04:16:43;;;;;;;6.17;4.00;;;;;17.90;102072.00;;;;5026443;28;20729;-69
2022/08/10 04:19:40;;;;;;;4.20;3.57;;;;;17.80;102068.00;;;;5022329;28;20906;-70
2022/08/10 04:22:28;;;;;;;9.17;4.27;;;;;17.90;102074.00;;;;5022157;28;20210;-73
2022/08/10 04:25:16;;;;;;;5.67;4.13;;;;;17.80;102074.00;;;;5016204;28;20326;-73
2022/08/10 04:28:03;;;;;;;6.30;3.90;;;;;18.00;102070.00;;;;5025908;28;20210;-71
2022/08/10 04:30:52;;;;;;;6.20;3.93;;;;;18.00;102078.00;;;;5019134;28;20218;-72
2022/08/10 04:33:43;;;;;;;7.90;4.07;;;;;18.10;102068.00;;;;5030238;28;20209;-70
2022/08/10 04:36:31;;;;;;;5.77;4.20;;;;;18.10;102075.00;;;;5021717;28;20402;-69
2022/08/10 04:39:18;;;;;;;5.63;4.03;;;;;18.00;102078.00;;;;5029436;28;20210;-72
2022/08/10 04:42:05;;;;;;;5.17;4.10;;;;;18.30;102081.00;;;;5027910;28;20210;-71
2022/08/10 04:44:52;;;;;;;5.27;3.67;;;;;18.10;102081.00;;;;5024315;28;20251;-70
2022/08/10 04:47:38;;;;;;;8.83;4.10;;;;;18.10;102081.00;;;;5026491;28;20249;-75
2022/08/10 04:50:45;;;;;;;7.33;3.80;;;;;18.20;102084.00;;;;5020747;28;20201;-71
2022/08/10 04:53:36;;;;;;;5.83;4.30;;;;;18.30;102078.00;;;;5020346;28;20217;-69
2022/08/10 04:56:42;;;;;;;7.73;4.40;;;;;18.30;102085.00;;;;5024850;28;20276;-71
2022/08/10 04:59:28;;;;;;;5.43;4.57;;;;;18.30;102081.00;;;;5024418;28;20668;-71
2022/08/10 05:02:14;;;;;;;6.30;4.10;;;;;18.20;102084.00;;;;5016696;28;20625;-72
2022/08/10 05:05:17;;;;;;;5.77;3.97;;;;;18.30;102089.00;;;;5018990;28;20778;-71
2022/08/10 05:08:03;;;;;;;5.27;4.07;;;;;18.40;102088.00;;;;5025831;28;20208;-71
2022/08/10 05:10:50;;;;;;;7.90;4.00;;;;;18.50;102089.00;;;;5024910;28;20577;-71
2022/08/10 05:13:37;;;;;;;6.63;4.43;;;;;18.40;102087.00;;;;5025241;28;20687;-73
2022/08/10 05:16:23;;;;;;;8.73;4.37;;;;;18.50;102090.00;;;;5024070;28;20240;-69
2022/08/10 05:19:17;;;;;;;6.10;4.10;;;;;18.50;102081.00;;;;5023663;28;20752;-71
2022/08/10 05:22:23;;;;;;;5.17;4.20;;;;;18.60;102079.00;;;;5028746;28;20218;-72
2022/08/10 05:25:12;;;;;;;5.30;4.13;;;;;18.60;102083.00;;;;5021411;28;20291;-74
2022/08/10 05:28:00;;;;;;;8.00;4.70;;;;;18.80;102083.00;;;;5027665;28;20737;-70
2022/08/10 05:30:51;;;;;;;8.50;4.00;;;;;18.70;102086.00;;;;5026177;28;20212;-74
2022/08/10 05:33:38;;;;;;;7.17;4.30;;;;;18.80;102090.00;;;;5016651;28;20201;-70
2022/08/10 05:36:24;;;;;;;5.03;4.30;;;;;19.00;102086.00;;;;5023853;28;20241;-71
2022/08/10 05:39:12;;;;;;;6.57;4.60;;;;;18.90;102080.00;;;;5022037;28;20220;-75
2022/08/10 05:41:59;;;;;;;7.00;4.17;;;;;18.90;102082.00;;;;5019208;28;20213;-71
2022/08/10 05:44:48;;;;;;;6.57;4.57;;;;;19.00;102079.00;;;;5019289;28;20210;-69
2022/08/10 05:47:34;;;;;;;5.37;4.10;;;;;19.00;102086.00;;;;5022992;28;20225;-69
2022/08/10 05:50:41;;;;;;;7.37;4.40;;;;;19.00;102086.00;;;;5016735;28;20698;-72
2022/08/10 05:53:27;;;;;;;5.93;4.20;;;;;19.10;102089.00;;;;5025633;28;20684;-72
2022/08/10 05:56:36;;;;;;;6.27;4.50;;;;;19.20;102089.00;;;;5022351;28;20353;-70
2022/08/10 05:59:49;;;;;;;6.70;4.67;;;;;19.20;102085.00;;;;5026175;28;20217;-69
2022/08/10 06:02:58;;;;;;;6.00;4.33;;;;;19.20;102090.00;;;;5027756;28;20611;-69
2022/08/10 06:05:47;;;;;;;5.07;4.07;;;;;19.20;102095.00;;;;5025734;28;20310;-70
2022/08/10 06:08:35;;;;;;;5.30;4.33;;;;;19.30;102098.00;;;;5019760;28;20204;-69
2022/08/10 06:11:22;;;;;;;5.37;4.10;;;;;19.30;102104.00;;;;5023489;28;20213;-70
2022/08/10 06:17:48;;;;;;;7.30;4.10;;;;;19.40;102098.00;;;;5016781;28;20238;-73
2022/08/10 06:20:47;;;;;;;5.10;3.90;;;;;19.40;102105.00;;;;5024143;28;20576;-69
2022/08/10 06:23:34;;;;;;;5.57;4.20;;;;;19.40;102100.00;;;;5026997;28;20670;-70
2022/08/10 06:26:21;;;;;;;4.97;4.27;;;;;19.60;102102.00;;;;5027395;28;20328;-70
2022/08/10 06:29:10;;;;;;;6.27;3.93;;;;;19.70;102103.00;;;;5023199;28;20217;-71
2022/08/10 06:31:57;;;;;;;5.57;3.87;;;;;19.80;102106.00;;;;5021873;28;20210;-70
2022/08/10 06:34:48;;;;;;;14.43;4.57;;;;;19.90;102098.00;;;;5019488;28;20583;-72
2022/08/10 06:37:35;;;;;;;4.73;3.83;;;;;19.90;102112.00;;;;5012880;28;20230;-72
2022/08/10 06:40:24;;;;;;;5.57;3.90;;;;;19.90;102108.00;;;;5023403;28;20320;-69
2022/08/10 06:43:15;;;;;;;4.23;3.53;;;;;19.90;102099.00;;;;5027677;28;20300;-69
2022/08/10 06:46:06;;;;;;;5.10;3.60;;;;;20.00;102113.00;;;;5018080;28;21106;-69
2022/08/10 06:48:58;;;;;;;5.47;3.40;;;;;20.20;102101.00;;;;5026835;28;20226;-70
2022/08/10 06:51:47;;;;;;;6.43;3.70;;;;;20.20;102098.00;;;;5024834;28;20710;-69
2022/08/10 06:54:44;;;;;;;5.80;3.47;;;;;20.30;102101.00;;;;5024361;28;20205;-68
2022/08/10 06:57:32;;;;;;;4.70;3.40;;;;;20.30;102097.00;;;;5020177;28;20230;-73
2022/08/10 07:00:19;;;;;;;4.80;3.47;;;;;20.30;102098.00;;;;5026464;28;20213;-73
2022/08/10 07:03:09;;;;;;;3.50;3.17;;;;;20.40;102097.00;;;;5021719;28;20218;-69
2022/08/10 07:05:57;;;;;;;4.43;3.30;;;;;20.50;102100.00;;;;5026696;28;20669;-68
2022/08/10 07:08:46;;;;;;;3.63;2.97;;;;;20.40;102098.00;;;;5026291;28;20214;-71
2022/08/10 07:11:33;;;;;;;5.23;3.20;;;;;20.50;102097.00;;;;5023688;28;20276;-70
2022/08/10 07:14:22;;;;;;;3.70;2.90;;;;;20.70;102094.00;;;;5027953;28;20221;-71
2022/08/10 07:17:11;;;;;;;3.33;2.73;;;;;20.70;102093.00;;;;5022349;28;20392;-73
2022/08/10 07:20:03;;;;;;;4.67;2.60;;;;;20.90;102089.00;;;;5020408;28;20702;-72
2022/08/10 07:22:52;;;;;;;3.20;2.90;;;;;21.10;102115.00;;;;5021450;28;20358;-73
2022/08/10 07:26:01;;;;;;;5.17;2.53;;;;;21.30;102105.00;;;;5018077;28;20318;-70
2022/08/10 07:28:49;;;;;;;7.83;2.83;;;;;21.20;102096.00;;;;5021679;28;20685;-71
2022/08/10 07:31:38;;;;;;;3.73;2.83;;;;;21.40;102101.00;;;;5023551;28;20345;-71
2022/08/10 07:34:44;;;;;;;4.93;2.90;;;;;21.50;102097.00;;;;5022228;28;20244;-70
2022/08/10 07:37:36;;;;;;;4.23;2.50;;;;;21.60;102101.00;;;;5023128;28;20227;-72
2022/08/10 07:40:23;;;;;;;7.17;2.77;;;;;21.60;102110.00;;;;5024419;28;20721;-72
2022/08/10 07:43:12;;;;;;;4.20;2.73;;;;;21.80;102096.00;;;;5021436;28;20883;-72
2022/08/10 07:45:59;;;;;;;5.03;2.57;;;;;22.10;102102.00;;;;5024197;28;20243;-71
2022/08/10 07:48:58;;;;;;;7.80;2.80;;;;;22.20;102112.00;;;;5019353;28;20622;-69
2022/08/10 07:51:45;;;;;;;3.87;2.87;;;;;22.20;102105.00;;;;5024139;28;20224;-69
2022/08/10 07:54:42;;;;;;;3.60;2.70;;;;;22.40;102105.00;;;;5020984;28;20518;-69
2022/08/10 07:57:31;;;;;;;4.30;3.00;;;;;22.60;102105.00;;;;5022518;28;20251;-69
2022/08/10 08:00:27;;;;;;;4.80;2.70;;;;;22.80;102101.00;;;;5023579;28;20232;-70
2022/08/10 08:03:15;;;;;;;4.27;2.40;;;;;22.90;102108.00;;;;5025067;28;20258;-69
2022/08/10 08:06:04;;;;;;;224.83;93.93;;;;;22.90;102099.00;;;;5024410;28;20691;-69
2022/08/10 08:08:59;;;;;;;12.03;6.13;;;;;23.00;102106.00;;;;5023755;28;20209;-69
2022/08/10 08:11:47;;;;;;;17.33;10.63;;;;;23.20;102105.00;;;;5022318;28;20841;-68
2022/08/10 08:14:34;;;;;;;3.90;2.90;;;;;23.30;102110.00;;;;5026399;28;20220;-68
2022/08/10 08:17:25;;;;;;;5.27;2.70;;;;;23.50;102119.00;;;;5022156;28;20391;-69
2022/08/10 08:20:24;;;;;;;2.87;2.57;;;;;23.50;102099.00;;;;5027835;28;20297;-70
2022/08/10 08:23:13;;;;;;;2.90;2.60;;;;;23.80;102103.00;;;;5028634;28;20217;-68
2022/08/10 08:26:22;;;;;;;6.83;2.67;;;;;24.00;102106.00;;;;5025433;28;20230;-71
2022/08/10 08:29:12;;;;;;;4.27;2.77;;;;;24.20;102114.00;;;;5021832;28;20333;-70
2022/08/10 08:31:59;;;;;;;4.63;2.50;;;;;24.20;102108.00;;;;5025063;28;20210;-66
2022/08/10 08:34:54;;;;;;;2.77;2.50;;;;;24.40;102107.00;;;;5016767;28;20586;-71
2022/08/10 08:37:41;;;;;;;3.97;2.93;;;;;24.60;102108.00;;;;5019101;28;20237;-69
2022/08/10 08:40:58;;;;;;;20.13;11.47;;;;;24.80;102104.00;;;;5027330;28;20221;-68
2022/08/10 08:43:53;;;;;;;106.80;58.30;;;;;25.10;102112.00;;;;5025369;28;20229;-69
2022/08/10 08:47:11;;;;;;;5.47;3.33;;;;;25.30;102099.00;;;;5018759;28;20233;-69
2022/08/10 08:50:29;;;;;;;2.97;2.77;;;;;25.40;102103.00;;;;5026245;28;20221;-69
2022/08/10 08:53:31;;;;;;;4.10;2.40;;;;;25.50;102103.00;;;;5027096;28;20352;-69
2022/08/10 08:56:44;;;;;;;6.27;2.60;;;;;25.50;102097.00;;;;5020651;28;20264;-67
2022/08/10 08:59:56;;;;;;;2.90;2.40;;;;;25.70;102086.00;;;;5023283;28;20209;-69
2022/08/10 09:03:01;;;;;;;4.60;3.03;;;;;26.00;102101.00;;;;5024908;28;20217;-70
2022/08/10 09:05:58;;;;;;;2.57;2.37;;;;;26.10;102101.00;;;;5024947;28;20606;-72
2022/08/10 09:09:16;;;;;;;3.30;2.43;;;;;26.40;102099.00;;;;5024617;28;20742;-69
2022/08/10 09:12:16;;;;;;;2.90;2.60;;;;;26.50;102093.00;;;;5001488;28;20236;-70
2022/08/10 09:15:08;;;;;;;3.93;2.60;;;;;26.60;102093.00;;;;5020880;28;20288;-69
2022/08/10 09:18:23;;;;;;;3.47;2.63;;;;;26.60;102082.00;;;;5027408;28;20217;-69
2022/08/10 09:21:17;;;;;;;4.97;3.57;;;;;26.70;102092.00;;;;5023680;28;20990;-69
2022/08/10 09:24:10;;;;;;;4.90;2.80;;;;;26.90;102088.00;;;;5024796;28;20260;-73
2022/08/10 09:27:00;;;;;;;4.80;2.93;;;;;27.00;102077.00;;;;5023093;28;20228;-70
2022/08/10 09:29:53;;;;;;;3.28;2.90;;;;;27.00;102080.00;;;;5026029;28;20212;-70
2022/08/10 09:32:46;;;;;;;3.10;2.80;;;;;27.20;102078.00;;;;5025934;28;20218;-71
2022/08/10 09:35:57;;;;;;;2.67;2.47;;;;;27.40;102084.00;;;;5027943;28;20341;-68
2022/08/10 09:39:16;;;;;;;25.57;13.37;;;;;27.30;102072.00;;;;5023984;28;20242;-69
2022/08/10 09:42:28;;;;;;;16.20;9.50;;;;;27.50;102072.00;;;;5021700;28;20225;-71
2022/08/10 09:45:23;;;;;;;4.88;2.60;;;;;27.70;102076.00;;;;5022201;28;20245;-72
2022/08/10 09:48:19;;;;;;;3.00;2.70;;;;;28.00;102059.00;;;;5021744;28;20614;-70
2022/08/10 09:51:13;;;;;;;3.15;2.83;;;;;28.10;102054.00;;;;5026484;28;20213;-71
2022/08/10 09:54:47;;;;;;;3.33;2.45;;;;;28.30;102054.00;;;;5027418;28;20217;-69
2022/08/10 09:57:39;;;;;;;2.75;2.50;;;;;28.20;102060.00;;;;5023925;28;20372;-70
2022/08/10 10:00:37;;;;;;;3.63;2.50;;;;;28.30;102061.00;;;;5024679;28;20802;-72
2022/08/10 10:03:29;;;;;;;55.15;27.55;;;;;28.60;102057.00;;;;5027850;28;20217;-69
2022/08/10 10:06:21;;;;;;;39.17;21.77;;;;;28.50;102054.00;;;;5032889;28;20355;-70
2022/08/10 10:09:15;;;;;;;4.35;3.60;;;;;28.60;102056.00;;;;5031221;28;20234;-69
2022/08/10 10:12:15;;;;;;;5.03;3.17;;;;;28.70;102055.00;;;;5026884;28;20261;-69
2022/08/10 10:15:22;;;;;;;3.13;2.83;;;;;28.60;102052.00;;;;5027249;28;20286;-69
2022/08/10 10:18:31;;;;;;;352.10;121.07;;;;;28.90;102055.00;;;;5024276;28;20645;-69
2022/08/10 10:21:25;;;;;;;46.10;17.98;;;;;28.90;102050.00;;;;5021694;28;20208;-68
2022/08/10 10:24:40;;;;;;;3.38;3.08;;;;;29.00;102051.00;;;;5022174;28;20252;-71
2022/08/10 10:27:49;;;;;;;7.03;2.80;;;;;29.40;102038.00;;;;5023263;28;20237;-68
2022/08/10 10:30:42;;;;;;;3.75;2.80;;;;;29.30;102035.00;;;;5024419;28;20214;-68
2022/08/10 10:33:35;;;;;;;3.17;2.50;;;;;29.40;102033.00;;;;5019963;28;20369;-68
2022/08/10 10:36:24;;;;;;;3.58;2.40;;;;;29.30;102032.00;;;;5023525;28;20233;-68
2022/08/10 10:39:14;;;;;;;2.40;2.20;;;;;29.60;102027.00;;;;5021890;28;20699;-69
2022/08/10 10:42:11;;;;;;;2.90;2.30;;;;;29.80;102031.00;;;;5021202;28;20309;-70
2022/08/10 10:45:23;;;;;;;6.28;3.08;;;;;29.70;102026.00;;;;5023591;28;20214;-70
2022/08/10 10:48:19;;;;;;;10.30;5.95;;;;;29.60;102025.00;;;;5020351;28;20234;-69
2022/08/10 10:51:21;;;;;;;6.32;2.63;;;;;29.70;102033.00;;;;5021753;28;20712;-71
2022/08/10 10:54:11;;;;;;;5.20;2.33;;;;;29.90;102027.00;;;;5018969;28;20372;-71
2022/08/10 10:57:19;;;;;;;2.60;2.40;;;;;29.90;102023.00;;;;5022491;28;20229;-72
2022/08/10 11:00:08;;;;;;;2.50;2.30;;;;;30.00;102011.00;;;;5023629;28;20217;-71
2022/08/10 11:03:11;;;;;;;2.25;1.90;;;;;30.20;102019.00;;;;5022494;28;20264;-70
2022/08/10 11:06:09;;;;;;;3.83;2.10;;;;;30.00;102018.00;;;;5021456;28;20237;-70
2022/08/10 11:08:59;;;;;;;5.10;2.22;;;;;30.00;102019.00;;;;5021321;28;20734;-71
2022/08/10 11:11:51;;;;;;;3.15;2.30;;;;;30.10;102011.00;;;;5021745;28;20209;-71
2022/08/10 11:14:55;;;;;;;3.60;2.42;;;;;30.20;102010.00;;;;5021186;28;20209;-71
2022/08/10 11:17:48;;;;;;;5.05;2.58;;;;;30.50;102016.00;;;;5020184;28;20221;-70
2022/08/10 11:20:42;;;;;;;89.32;47.42;;;;;30.60;102011.00;;;;5024396;28;20538;-70
2022/08/10 11:23:34;;;;;;;50.17;32.58;;;;;30.40;101999.00;;;;5033390;28;20277;-69
2022/08/10 11:26:27;;;;;;;12.70;9.63;;;;;30.50;101993.00;;;;5034320;28;20228;-69
2022/08/10 11:29:19;;;;;;;2.97;2.35;;;;;30.40;101992.00;;;;5027963;28;20236;-71
2022/08/10 11:32:11;;;;;;;3.80;2.00;;;;;30.80;101988.00;;;;5024132;28;20214;-70
2022/08/10 11:35:17;;;;;;;7.88;6.40;;;;;31.00;101999.00;;;;5017486;28;20787;-71
2022/08/10 11:38:14;;;;;;;10.02;5.60;;;;;30.80;101991.00;;;;5019337;28;20217;-70
2022/08/10 11:41:29;;;;;;;3.08;2.40;;;;;30.90;101983.00;;;;5019059;28;20793;-70
2022/08/10 11:44:43;;;;;;;43.25;25.48;;;;;31.10;101976.00;;;;5019672;28;20217;-70
2022/08/10 11:47:37;;;;;;;6.78;5.13;;;;;31.20;101989.00;;;;5029892;28;20229;-73
2022/08/10 11:50:26;;;;;;;4.00;2.50;;;;;31.40;101980.00;;;;5025144;28;20225;-73
2022/08/10 11:53:19;;;;;;;5.72;2.30;;;;;31.40;101982.00;;;;5020295;28;20213;-69
2022/08/10 11:56:08;;;;;;;3.20;2.30;;;;;31.50;101974.00;;;;5024644;28;20341;-73
2022/08/10 12:02:04;;;;;;;3.30;2.03;;;;;31.50;101984.00;;;;5029814;28;20209;-71
2022/08/10 12:04:54;;;;;;;3.83;2.03;;;;;31.60;101976.00;;;;5028432;28;20345;-71
2022/08/10 12:07:43;;;;;;;4.22;2.30;;;;;31.80;101972.00;;;;5027116;28;20230;-71
2022/08/10 12:10:52;;;;;;;9.80;2.30;;;;;31.90;101972.00;;;;5028430;28;20970;-68
2022/08/10 12:13:45;;;;;;;2.42;2.22;;;;;31.90;101979.00;;;;5029000;28;20213;-70
2022/08/10 12:16:59;;;;;;;2.55;1.92;;;;;32.00;101971.00;;;;5024618;28;20224;-67
2022/08/10 12:19:54;;;;;;;2.85;2.35;;;;;32.10;101975.00;;;;5026507;28;20215;-69
2022/08/10 12:22:54;;;;;;;2.40;2.10;;;;;32.10;101961.00;;;;5026655;28;20304;-68
2022/08/10 12:25:45;;;;;;;4.30;2.10;;;;;32.00;101967.00;;;;5024462;28;20718;-70
2022/08/10 12:28:51;;;;;;;5.65;2.25;;;;;32.20;101975.00;;;;5025361;28;20229;-69
2022/08/10 12:31:42;;;;;;;2.30;2.10;;;;;32.20;101970.00;;;;5027920;28;20213;-69
2022/08/10 12:34:32;;;;;;;2.80;2.13;;;;;32.20;101969.00;;;;5027404;28;20683;-69
2022/08/10 12:37:22;;;;;;;5.53;4.63;;;;;32.10;101960.00;;;;5024320;28;20229;-70
2022/08/10 12:40:14;;;;;;;3.88;2.97;;;;;31.90;101949.00;;;;5027551;28;20221;-68
2022/08/10 12:43:25;;;;;;;3.88;2.00;;;;;31.90;101952.00;;;;5026395;28;20213;-68
2022/08/10 12:46:39;;;;;;;2.45;2.20;;;;;32.00;101960.00;;;;5024212;28;20938;-70
2022/08/10 12:49:31;;;;;;;4.32;2.10;;;;;32.20;101948.00;;;;5020121;28;20233;-73
2022/08/10 12:52:20;;;;;;;5.05;2.40;;;;;32.30;101952.00;;;;5019802;28;20248;-70
2022/08/10 12:55:09;;;;;;;2.88;2.05;;;;;32.60;101938.00;;;;5020735;28;20210;-71
2022/08/10 12:57:57;;;;;;;7.22;2.03;;;;;32.30;101943.00;;;;5027797;28;20217;-70
2022/08/10 13:00:45;;;;;;;3.35;1.83;;;;;32.60;101943.00;;;;5025804;28;20584;-71
2022/08/10 13:04:06;;;;;;;2.25;2.03;;;;;32.60;101937.00;;;;5025996;28;20218;-70
2022/08/10 13:07:10;;;;;;;2.30;2.10;;;;;32.30;101935.00;;;;5028412;28;20241;-71
2022/08/10 13:10:17;;;;;;;2.10;1.90;;;;;32.90;101932.00;;;;5027010;28;20233;-70
2022/08/10 13:13:04;;;;;;;3.30;1.80;;;;;32.80;101930.00;;;;5021914;28;20328;-70
2022/08/10 13:15:56;;;;;;;2.03;1.67;;;;;32.90;101931.00;;;;5022463;28;20237;-71
2022/08/10 13:18:45;;;;;;;29.98;17.90;;;;;32.70;101922.00;;;;5030247;28;20208;-72
2022/08/10 13:21:37;;;;;;;5.68;2.33;;;;;32.20;101917.00;;;;5027947;28;20209;-71
2022/08/10 13:24:28;;;;;;;2.88;2.05;;;;;32.60;101915.00;;;;5019938;28;20217;-71
2022/08/10 13:27:16;;;;;;;1.98;1.80;;;;;32.80;101914.00;;;;5025267;28;20233;-70
2022/08/10 13:30:26;;;;;;;1.98;1.83;;;;;33.00;101903.00;;;;5021453;28;20767;-70
2022/08/10 13:33:27;;;;;;;52.05;31.50;;;;;32.90;101914.00;;;;5018008;28;20209;-70
2022/08/10 13:36:37;;;;;;;4.18;2.78;;;;;32.80;101900.00;;;;5019411;28;20237;-68
2022/08/10 13:39:26;;;;;;;4.78;2.05;;;;;33.00;101897.00;;;;5021458;28;20218;-65
2022/08/10 13:42:13;;;;;;;3.90;1.75;;;;;33.30;101902.00;;;;5018629;28;20218;-67
2022/08/10 13:45:06;;;;;;;2.03;1.83;;;;;32.80;101894.00;;;;5021701;28;20217;-67
2022/08/10 13:48:06;;;;;;;3.60;1.77;;;;;32.90;101880.00;;;;5025417;28;20312;-68
2022/08/10 13:50:58;;;;;;;2.38;1.75;;;;;33.20;101879.00;;;;5020816;28;20230;-69
2022/08/10 13:53:46;;;;;;;36.28;23.95;;;;;33.20;101871.00;;;;5016605;28;20217;-70
2022/08/10 13:56:35;;;;;;;15.60;8.48;;;;;33.20;101876.00;;;;5013192;28;20233;-69
2022/08/10 13:59:26;;;;;;;2.83;2.53;;;;;33.10;101879.00;;;;5015568;28;20289;-68
2022/08/10 14:02:36;;;;;;;2.90;2.20;;;;;33.20;101870.00;;;;5021167;28;20252;-67
2022/08/10 14:05:26;;;;;;;2.42;1.73;;;;;33.10;101881.00;;;;5019062;28;20682;-69
2022/08/10 14:08:17;;;;;;;2.72;1.80;;;;;33.60;101881.00;;;;5015930;28;20214;-69
2022/08/10 14:11:10;;;;;;;3.28;1.98;;;;;33.80;101878.00;;;;5017565;28;20325;-70
2022/08/10 14:14:00;;;;;;;1.92;1.83;;;;;33.80;101875.00;;;;5021085;28;20843;-70
2022/08/10 14:16:48;;;;;;;356.35;197.90;;;;;34.00;101872.00;;;;5017817;28;20233;-67
2022/08/10 14:19:39;;;;;;;92.75;55.50;;;;;34.10;101883.00;;;;5024157;28;20214;-69
2022/08/10 14:22:29;;;;;;;2.97;2.50;;;;;33.80;101877.00;;;;5022117;28;20673;-69
2022/08/10 14:25:25;;;;;;;5.68;2.17;;;;;34.10;101872.00;;;;5024198;28;20252;-69
2022/08/10 14:28:15;;;;;;;3.50;1.70;;;;;34.50;101865.00;;;;5014521;28;20214;-68